Time;durP1;ratioP1;P1;durP2;ratioP2;P2;SDS_P1;SDS_P2;PMS_P1;PMS_P2;Temp;Humidity;BMP_temperature;BMP_pressure;BME280_temperature;BME280_humidity;BME280_pressure;Samples;Min_cycle;Max_cycle;Signal;HPM_P1;HPM_P2
2022/06/02 00:02:25;;;;;;;1.75;0.60;;;;;;;14.34;72.16;98867.25;4987823;28;20026;-64
2022/06/02 00:05:12;;;;;;;1.95;0.73;;;;;;;14.18;74.16;98846.91;4982677;28;20467;-65
2022/06/02 00:08:24;;;;;;;1.48;0.73;;;;;;;14.25;74.17;98866.72;4990347;28;20072;-65
2022/06/02 00:11:08;;;;;;;1.15;0.55;;;;;;;14.20;75.06;98874.72;4937824;28;20049;-65
2022/06/02 00:13:50;;;;;;;2.38;0.88;;;;;;;14.17;74.83;98880.63;4988035;28;20023;-65
2022/06/02 00:16:25;;;;;;;1.90;0.68;;;;;;;14.17;75.68;98880.63;4981879;28;20126;-65
2022/06/02 00:19:02;;;;;;;2.58;0.70;;;;;;;14.13;76.80;98881.28;4984265;28;20026;-64
2022/06/02 00:21:38;;;;;;;3.58;0.80;;;;;;;14.08;78.21;98876.50;4990655;28;20507;-65
2022/06/02 00:24:32;;;;;;;4.05;1.13;;;;;;;14.05;78.18;98873.41;4991203;28;20084;-65
2022/06/02 00:27:39;;;;;;;0.88;0.50;;;;;;;14.10;78.65;98876.28;4983631;28;20404;-65
2022/06/02 00:30:24;;;;;;;1.17;0.60;;;;;;;14.00;78.11;98876.81;4990864;28;20125;-66
2022/06/02 00:33:28;;;;;;;1.67;0.57;;;;;;;13.99;77.33;98877.84;4988819;28;20038;-65
2022/06/02 00:35:59;;;;;;;2.22;0.68;;;;;;;13.99;76.88;98881.41;4987171;28;20025;-65
2022/06/02 00:38:29;;;;;;;3.33;0.70;;;;;;;13.95;77.86;98879.34;4985375;28;20483;-65
2022/06/02 00:41:04;;;;;;;2.63;0.47;;;;;;;13.87;79.43;98885.09;4988355;28;20483;-65
2022/06/02 00:43:33;;;;;;;1.38;0.75;;;;;;;13.85;79.16;98879.03;4985095;28;20038;-65
2022/06/02 00:46:19;;;;;;;2.30;0.73;;;;;;;13.62;80.35;98860.59;4989707;28;20030;-64
2022/06/02 00:49:09;;;;;;;2.03;0.70;;;;;;;13.74;79.67;98886.03;4982860;28;20035;-65
2022/06/02 00:51:40;;;;;;;5.45;0.70;;;;;;;13.65;82.15;98890.06;4987906;28;20031;-65
2022/06/02 00:57:34;;;;;;;2.67;0.70;;;;;;;13.48;82.90;98889.78;4991051;28;20682;-65
2022/06/02 01:00:14;;;;;;;1.08;0.50;;;;;;;13.38;83.31;98891.06;4989659;28;20033;-64
2022/06/02 01:02:48;;;;;;;1.52;0.52;;;;;;;13.24;83.97;98883.22;4987004;28;20031;-65
2022/06/02 01:05:19;;;;;;;1.33;0.50;;;;;;;13.19;85.21;98881.16;4993024;28;20030;-65
2022/06/02 01:07:50;;;;;;;1.77;0.73;;;;;;;13.09;86.91;98891.66;4985267;28;20109;-65
2022/06/02 01:10:21;;;;;;;0.90;0.65;;;;;;;13.03;89.81;98889.81;4990044;28;20037;-65
2022/06/02 01:13:16;;;;;;;3.17;0.70;;;;;;;13.02;89.61;98880.84;4988391;28;20042;-66
2022/06/02 01:16:13;;;;;;;1.17;0.60;;;;;;;13.05;89.38;98891.28;4988717;28;20038;-65
2022/06/02 01:18:38;;;;;;;0.80;0.50;;;;;;;13.01;89.79;98886.47;4991041;28;20629;-65
2022/06/02 01:21:51;;;;;;;2.55;0.63;;;;;;;12.97;90.94;98894.25;4991261;28;20029;-65
2022/06/02 01:24:52;;;;;;;3.85;0.70;;;;;;;12.97;91.70;98898.81;4913694;29;20474;-65
2022/06/02 01:27:36;;;;;;;1.42;0.65;;;;;;;13.06;91.53;98903.78;4916502;29;20122;-64
2022/06/02 01:30:21;;;;;;;1.95;0.88;;;;;;;13.13;90.97;98903.75;4992180;28;20034;-65
2022/06/02 01:33:24;;;;;;;1.83;0.60;;;;;;;13.18;91.03;98911.25;4991694;28;20030;-65
2022/06/02 01:36:04;;;;;;;1.52;0.80;;;;;;;13.20;91.14;98903.72;4991451;28;20076;-65
2022/06/02 01:38:38;;;;;;;0.60;0.57;;;;;;;13.19;90.87;98902.06;4991015;28;20033;-65
2022/06/02 01:41:13;;;;;;;2.65;0.63;;;;;;;13.16;91.26;98914.19;4989115;28;20481;-65
2022/06/02 01:43:58;;;;;;;0.75;0.60;;;;;;;13.13;91.55;98896.44;4990603;28;20084;-65
2022/06/02 01:46:52;;;;;;;4.13;0.82;;;;;;;12.98;91.82;98895.06;4987685;28;20582;-65
2022/06/02 01:49:33;;;;;;;2.22;0.90;;;;;;;12.99;92.66;98913.00;4992838;28;20041;-65
2022/06/02 01:51:58;;;;;;;2.67;0.70;;;;;;;12.97;93.74;98920.53;4991864;28;20473;-65
2022/06/02 01:54:41;;;;;;;1.15;0.50;;;;;;;12.95;93.25;98912.63;5006590;22;20034;-67
2022/06/02 01:57:27;;;;;;;1.17;0.70;;;;;;;12.94;95.73;98914.50;4982572;28;20026;-66
2022/06/02 02:00:04;;;;;;;0.90;0.57;;;;;;;12.76;96.89;98930.69;4989079;28;20386;-66
2022/06/02 02:02:53;;;;;;;2.17;0.80;;;;;;;12.53;97.79;98916.75;4992580;28;20110;-66
2022/06/02 02:05:44;;;;;;;1.52;0.73;;;;;;;12.52;97.82;98934.91;4989186;28;20034;-66
2022/06/02 02:08:35;;;;;;;1.35;0.65;;;;;;;12.41;98.29;98930.13;4990221;28;20030;-66
2022/06/02 02:11:04;;;;;;;3.25;0.70;;;;;;;12.34;99.81;98923.88;4990145;28;20044;-67
2022/06/02 02:13:36;;;;;;;1.52;0.70;;;;;;;12.24;100.00;98935.19;4984094;28;20089;-67
2022/06/02 02:16:40;;;;;;;2.97;0.80;;;;;;;12.17;100.00;98931.63;4991031;28;20073;-67
2022/06/02 02:19:27;;;;;;;2.17;0.90;;;;;;;12.16;100.00;98943.53;4993977;28;20397;-67
2022/06/02 02:22:07;;;;;;;1.00;0.70;;;;;;;12.20;100.00;98937.47;4977209;28;20551;-68
2022/06/02 02:24:41;;;;;;;1.85;0.80;;;;;;;12.29;100.00;98943.53;4984666;28;20039;-68
2022/06/02 02:28:02;;;;;;;1.17;0.80;;;;;;;12.35;100.00;98942.66;4978241;28;20034;-68
2022/06/02 02:30:24;;;;;;;2.13;0.73;;;;;;;12.37;99.22;98943.31;4984282;28;20038;-67
2022/06/02 02:33:07;;;;;;;2.75;1.10;;;;;;;12.30;99.12;98938.94;4986336;28;20034;-68
2022/06/02 02:35:53;;;;;;;2.50;1.05;;;;;;;12.21;98.81;98943.75;4984115;28;20034;-67
2022/06/02 02:38:30;;;;;;;3.50;0.90;;;;;;;12.15;97.25;98947.28;4989502;28;20038;-67
2022/06/02 02:41:00;;;;;;;6.28;1.38;;;;;;;12.14;97.86;98953.75;4991019;28;20109;-68
2022/06/02 02:43:38;;;;;;;3.55;1.25;;;;;;;12.17;96.82;98948.75;4988064;28;20121;-68
2022/06/02 02:46:10;;;;;;;1.38;1.00;;;;;;;12.17;96.30;98942.50;4991522;28;20030;-68
2022/06/02 02:49:05;;;;;;;1.45;1.00;;;;;;;12.16;100.00;98940.84;4991681;28;20133;-67
2022/06/02 02:51:51;;;;;;;1.30;1.05;;;;;;;12.11;100.00;98949.59;4990092;28;20026;-68
2022/06/02 02:54:36;;;;;;;2.30;0.77;;;;;;;12.07;100.00;98938.31;4988285;28;20038;-67
2022/06/02 02:57:10;;;;;;;1.05;0.80;;;;;;;11.99;100.00;98926.84;4984356;28;20118;-68
2022/06/02 02:59:45;;;;;;;1.23;0.73;;;;;;;12.11;100.00;98938.75;4988987;28;20129;-68
2022/06/02 03:02:45;;;;;;;1.20;1.10;;;;;;;12.14;100.00;98941.03;4984453;28;20041;-67
2022/06/02 03:05:24;;;;;;;;;;;;;;;12.15;100.00;98945.41;4987173;28;20030;-68
2022/06/02 03:07:49;;;;;;;3.35;0.80;;;;;;;12.13;100.00;98943.94;4987445;28;20021;-68
2022/06/02 03:10:38;;;;;;;2.40;1.00;;;;;;;12.09;100.00;98948.97;4990977;28;20034;-67
2022/06/02 03:13:57;;;;;;;1.85;0.73;;;;;;;12.07;100.00;98949.16;4986695;28;20026;-68
2022/06/02 03:16:24;;;;;;;1.17;0.85;;;;;;;12.05;100.00;98945.84;4924967;29;20027;-67
2022/06/02 03:19:30;;;;;;;1.73;1.00;;;;;;;11.97;100.00;98945.19;4930396;29;20062;-67
2022/06/02 03:22:07;;;;;;;2.30;1.00;;;;;;;11.89;100.00;98957.09;4970927;28;20055;-68
2022/06/02 03:24:43;;;;;;;2.17;1.20;;;;;;;11.87;100.00;98959.19;4986486;28;20030;-70
2022/06/02 03:27:13;;;;;;;1.25;0.95;;;;;;;11.83;100.00;98964.16;4986426;28;20026;-68
2022/06/02 03:30:15;;;;;;;1.77;0.75;;;;;;;11.98;100.00;98965.88;4987015;28;20057;-67
2022/06/02 03:33:12;;;;;;;4.45;1.58;;;;;;;12.18;100.00;98961.28;4986273;28;20029;-68
2022/06/02 03:35:59;;;;;;;2.00;1.20;;;;;;;12.20;100.00;98963.75;4963507;28;20140;-68
2022/06/02 03:38:46;;;;;;;2.17;1.10;;;;;;;12.29;100.00;98957.09;4989932;28;20105;-68
2022/06/02 03:41:44;;;;;;;1.15;1.02;;;;;;;12.00;100.00;98966.50;4988656;28;20384;-67
2022/06/02 03:44:28;;;;;;;1.60;1.33;;;;;;;12.02;100.00;98965.22;4989374;28;20041;-67
2022/06/02 03:46:56;;;;;;;2.10;1.20;;;;;;;11.98;100.00;98969.41;4983798;28;20033;-67
2022/06/02 03:49:34;;;;;;;2.20;1.38;;;;;;;11.81;100.00;98962.69;4988826;28;20030;-66
2022/06/02 03:52:19;;;;;;;2.42;1.38;;;;;;;11.67;100.00;98959.13;4984398;28;20033;-67
2022/06/02 03:55:02;;;;;;;1.98;1.20;;;;;;;11.81;100.00;98976.22;4986338;28;20114;-67
2022/06/02 03:57:49;;;;;;;4.57;0.98;;;;;;;11.85;100.00;98975.63;4979899;28;20030;-69
2022/06/02 04:00:18;;;;;;;5.47;1.20;;;;;;;11.90;100.00;98972.31;4986077;28;20030;-71
2022/06/02 04:02:46;;;;;;;1.23;1.00;;;;;;;11.93;100.00;98971.06;4989612;28;20459;-71
2022/06/02 04:05:37;;;;;;;2.45;1.13;;;;;;;11.96;100.00;98970.66;4990263;28;20057;-71
2022/06/02 04:08:18;;;;;;;1.35;1.00;;;;;;;12.02;100.00;98976.06;4990191;28;20030;-70
2022/06/02 04:11:12;;;;;;;3.10;1.23;;;;;;;12.11;100.00;98975.88;4990848;28;20610;-72
2022/06/02 04:13:59;;;;;;;1.58;1.10;;;;;;;12.28;100.00;98971.69;4986125;28;20031;-71
2022/06/02 04:16:38;;;;;;;3.40;1.10;;;;;;;12.40;100.00;98983.56;4990986;28;20435;-70
2022/06/02 04:20:34;;;;;;;2.17;1.00;;;;;;;12.49;100.00;98984.16;4990949;28;20018;-67
2022/06/02 04:22:10;;;;;;;1.75;1.13;;;;;;;12.52;100.00;98974.78;4985677;28;20070;-71
2022/06/02 04:24:55;;;;;;;1.95;1.15;;;;;;;12.55;100.00;98982.50;4992619;28;20026;-72
2022/06/02 04:27:32;;;;;;;2.63;1.10;;;;;;;12.46;100.00;98977.28;4992576;28;20034;-70
2022/06/02 04:30:21;;;;;;;1.48;0.88;;;;;;;12.37;100.00;98997.56;4989689;28;20027;-68
2022/06/02 04:33:01;;;;;;;3.33;1.00;;;;;;;12.23;100.00;98980.44;4992137;28;20092;-69
2022/06/02 04:35:47;;;;;;;1.35;1.00;;;;;;;12.44;100.00;98998.41;4993864;28;20085;-67
2022/06/02 04:38:44;;;;;;;2.00;1.10;;;;;;;12.56;100.00;98995.84;4987543;28;20030;-67
2022/06/02 04:41:34;;;;;;;1.95;1.00;;;;;;;12.66;100.00;98985.41;4993194;28;20045;-67
2022/06/02 04:44:21;;;;;;;2.63;1.08;;;;;;;12.83;100.00;98993.91;4987492;28;20031;-71
2022/06/02 04:47:23;;;;;;;2.13;1.02;;;;;;;13.04;100.00;98990.06;4994804;28;20133;-73
2022/06/02 04:50:07;;;;;;;1.73;1.00;;;;;;;13.25;100.00;98990.84;4991905;28;20049;-67
2022/06/02 04:52:51;;;;;;;4.32;1.45;;;;;;;13.40;100.00;98996.03;4985793;28;20042;-68
2022/06/02 04:55:29;;;;;;;2.45;1.42;;;;;;;13.45;100.00;98999.75;4989039;28;20030;-67
2022/06/02 04:58:04;;;;;;;3.70;1.10;;;;;;;13.54;100.00;98993.00;4987883;28;20041;-72
2022/06/02 05:01:14;;;;;;;4.18;1.15;;;;;;;13.61;100.00;98990.25;4985848;28;20068;-70
2022/06/02 05:03:58;;;;;;;2.88;1.20;;;;;;;13.74;100.00;98992.91;4932903;29;20050;-68
2022/06/02 05:06:33;;;;;;;1.92;1.30;;;;;;;13.82;99.11;98989.91;4991381;28;20113;-73
2022/06/02 05:09:26;;;;;;;2.05;1.30;;;;;;;14.12;96.18;98996.59;4991003;28;20038;-71
2022/06/02 05:12:04;;;;;;;4.35;1.30;;;;;;;14.16;94.02;99001.38;4986504;28;20037;-73
2022/06/02 05:14:42;;;;;;;2.65;1.30;;;;;;;14.29;93.01;99002.34;4979990;28;20125;-69
2022/06/02 05:17:43;;;;;;;2.58;1.20;;;;;;;14.36;91.64;99005.84;4986386;28;20038;-72
2022/06/02 05:20:17;;;;;;;2.67;1.20;;;;;;;14.54;90.07;99010.50;4983326;28;20518;-72
2022/06/02 05:23:30;;;;;;;4.78;1.42;;;;;;;14.82;83.83;99018.19;4982422;28;20722;-75
2022/06/02 05:26:18;;;;;;;1.83;1.00;;;;;;;15.06;83.80;99016.44;4957639;28;20038;-75
2022/06/02 05:29:00;;;;;;;2.10;1.00;;;;;;;15.07;82.97;99008.06;4991196;28;20030;-70
2022/06/02 05:31:31;;;;;;;2.90;1.10;;;;;;;14.93;85.24;99027.50;4987378;28;20035;-72
2022/06/02 05:34:07;;;;;;;3.03;1.40;;;;;;;15.03;83.98;99022.34;4987757;28;20030;-71
2022/06/02 05:36:39;;;;;;;1.98;0.90;;;;;;;15.45;81.33;99017.03;4986534;28;20161;-72
2022/06/02 05:39:04;;;;;;;1.50;1.10;;;;;;;15.70;79.23;99033.31;4989532;28;20322;-69
2022/06/02 05:41:51;;;;;;;2.00;1.10;;;;;;;15.73;79.00;99030.13;4985300;28;20216;-71
2022/06/02 05:44:41;;;;;;;1.73;1.08;;;;;;;15.20;81.52;99047.13;4982655;28;20026;-72
2022/06/02 05:47:38;;;;;;;3.33;1.10;;;;;;;15.39;81.78;99048.78;4984109;28;20039;-72
2022/06/02 05:50:31;;;;;;;2.97;1.10;;;;;;;15.70;79.74;99047.78;4991243;28;20036;-74
2022/06/02 05:53:35;;;;;;;1.77;1.05;;;;;;;15.95;75.05;99047.63;4987744;28;20046;-73
2022/06/02 05:56:06;;;;;;;1.27;0.88;;;;;;;16.18;73.14;99037.84;4943161;28;20499;-73
2022/06/02 05:58:43;;;;;;;2.75;0.90;;;;;;;16.33;72.06;99040.97;4991472;28;20022;-65
2022/06/02 06:01:17;;;;;;;5.53;1.00;;;;;;;16.60;70.65;99035.03;4987860;28;20476;-66
2022/06/02 06:04:00;;;;;;;1.20;0.70;;;;;;;16.93;65.40;99041.84;4983768;28;20053;-66
2022/06/02 06:06:43;;;;;;;1.90;0.90;;;;;;;16.86;65.92;99041.97;4984719;28;20026;-69
2022/06/02 06:09:17;;;;;;;1.92;1.02;;;;;;;17.05;65.88;99034.47;4989798;28;20027;-73
2022/06/02 06:12:09;;;;;;;3.03;1.05;;;;;;;17.14;62.27;99034.94;4990309;28;20026;-72
2022/06/02 06:14:40;;;;;;;1.48;0.77;;;;;;;17.06;63.54;99041.59;4992206;28;20034;-70
2022/06/02 06:17:22;;;;;;;1.20;0.80;;;;;;;17.46;63.24;99038.06;4980035;28;20053;-73
2022/06/02 06:20:22;;;;;;;1.48;0.88;;;;;;;17.65;57.27;99031.31;4982853;28;20061;-73
2022/06/02 06:22:57;;;;;;;1.02;0.75;;;;;;;17.79;56.82;99033.75;4966405;28;20128;-76
2022/06/02 06:25:51;;;;;;;2.60;0.77;;;;;;;17.58;57.08;99033.41;4987552;28;20030;-74
2022/06/02 06:28:23;;;;;;;1.60;0.90;;;;;;;17.69;57.11;99026.22;4993336;28;20026;-76
2022/06/02 06:31:15;;;;;;;1.85;0.80;;;;;;;18.04;54.71;99039.75;4991400;28;20097;-74
2022/06/02 06:33:50;;;;;;;2.13;0.90;;;;;;;18.39;55.82;99044.19;4987161;28;20041;-72
2022/06/02 06:36:50;;;;;;;2.65;0.95;;;;;;;18.23;52.82;99045.84;4985544;28;20215;-69
2022/06/02 06:39:27;;;;;;;2.25;1.00;;;;;;;18.64;52.10;99045.69;4913605;29;20156;-71
2022/06/02 06:42:20;;;;;;;2.50;1.25;;;;;;;19.26;51.23;99043.63;4974946;28;20453;-69
2022/06/02 06:44:53;;;;;;;2.70;0.77;;;;;;;19.62;50.56;99035.84;4988298;28;20034;-68
2022/06/02 06:47:42;;;;;;;3.08;0.90;;;;;;;20.48;46.93;99028.72;4986811;28;20458;-69
2022/06/02 06:50:18;;;;;;;2.53;0.73;;;;;;;20.78;46.87;99033.66;4984898;28;20025;-69
2022/06/02 06:53:08;;;;;;;1.85;0.85;;;;;;;21.67;43.67;99040.19;4979378;28;20500;-69
2022/06/02 06:55:38;;;;;;;6.35;1.33;;;;;;;23.22;41.47;99028.97;4989486;28;20667;-70
2022/06/02 06:58:42;;;;;;;3.95;1.15;;;;;;;24.42;36.96;99028.88;4984361;28;20096;-68
2022/06/02 07:01:18;;;;;;;2.67;1.20;;;;;;;25.10;35.48;99025.22;4985026;28;20042;-73
2022/06/02 07:04:13;;;;;;;1.00;0.80;;;;;;;26.27;32.75;99024.81;4984671;28;20038;-73
2022/06/02 07:07:01;;;;;;;3.10;1.05;;;;;;;27.84;31.13;99033.34;4989186;28;20129;-75
2022/06/02 07:09:34;;;;;;;1.30;0.93;;;;;;;27.94;30.51;99025.59;4989309;28;20030;-77
2022/06/02 07:14:55;;;;;;;2.13;0.90;;;;;;;28.97;29.39;99028.66;4984244;28;20121;-72
2022/06/02 07:17:45;;;;;;;2.08;0.82;;;;;;;28.75;30.13;99027.56;4992176;28;20034;-74
2022/06/02 07:20:20;;;;;;;0.60;0.60;;;;;;;30.38;28.61;99032.34;4990324;28;20026;-66
2022/06/02 07:23:09;;;;;;;3.70;0.82;;;;;;;30.90;28.18;99031.50;4987039;28;20161;-70
2022/06/02 07:25:44;;;;;;;0.88;0.80;;;;;;;31.52;26.77;99022.56;4988676;28;20111;-76
2022/06/02 07:28:50;;;;;;;1.52;0.60;;;;;;;31.79;25.70;99024.03;5003457;28;20373;-72
2022/06/02 07:31:42;;;;;;;1.77;0.50;;;;;;;31.71;25.76;99015.69;4980354;28;20044;-75
2022/06/02 07:34:19;;;;;;;0.82;0.73;;;;;;;31.06;26.10;99023.38;4970324;28;20058;-74
2022/06/02 07:37:08;;;;;;;1.70;0.93;;;;;;;31.22;25.20;99010.50;4990143;28;20488;-72
2022/06/02 07:39:39;;;;;;;0.88;0.50;;;;;;;31.93;25.75;99023.78;4991726;28;20041;-75
2022/06/02 07:42:16;;;;;;;2.30;0.75;;;;;;;32.00;25.98;99026.88;4980883;28;20031;-75
2022/06/02 07:44:59;;;;;;;3.60;0.93;;;;;;;31.73;26.14;99018.97;4988381;28;20064;-73
2022/06/02 07:47:40;;;;;;;3.05;0.73;;;;;;;32.58;25.23;99027.06;4982910;28;20392;-72
2022/06/02 07:50:26;;;;;;;1.20;0.70;;;;;;;31.32;25.07;99015.72;4987980;28;20030;-72
2022/06/02 07:53:00;;;;;;;1.63;0.45;;;;;;;31.45;25.43;99011.06;4986152;28;20465;-72
2022/06/02 07:55:49;;;;;;;2.70;0.50;;;;;;;32.03;25.65;99017.78;4981261;28;20027;-74
2022/06/02 07:58:20;;;;;;;1.55;0.60;;;;;;;33.02;24.61;99027.47;4986014;28;20030;-72
2022/06/02 08:01:06;;;;;;;3.33;0.77;;;;;;;31.24;25.70;99024.97;4997430;28;20088;-73
2022/06/02 08:04:19;;;;;;;2.95;0.50;;;;;;;32.46;25.25;99025.03;4984669;28;20048;-72
2022/06/02 08:07:46;;;;;;;7.78;0.63;;;;;;;32.24;25.86;99016.97;4963551;28;20043;-74
2022/06/02 08:10:21;;;;;;;1.58;0.70;;;;;;;33.30;25.92;99024.81;4920502;29;20039;-72
2022/06/02 08:12:56;;;;;;;1.00;0.60;;;;;;;33.33;25.27;99028.91;4977519;28;20042;-74
2022/06/02 08:15:54;;;;;;;2.10;0.55;;;;;;;33.96;23.79;99011.69;4987380;28;20030;-73
2022/06/02 08:18:38;;;;;;;1.20;0.67;;;;;;;33.87;23.60;99027.84;4979663;28;20050;-77
2022/06/02 08:21:16;;;;;;;2.85;0.57;;;;;;;34.41;23.28;99022.69;4976910;28;20126;-73
2022/06/02 08:23:57;;;;;;;3.10;0.60;;;;;;;33.73;23.85;99020.63;4987963;28;20038;-70
2022/06/02 08:26:24;;;;;;;2.08;0.60;;;;;;;35.64;22.89;99013.53;4986331;28;20030;-71
2022/06/02 08:29:06;;;;;;;1.00;0.40;;;;;;;35.05;23.03;99014.41;4986794;28;20035;-69
2022/06/02 08:31:51;;;;;;;1.30;0.50;;;;;;;34.37;22.56;99023.75;4979666;28;20050;-71
2022/06/02 08:34:20;;;;;;;1.42;0.50;;;;;;;34.49;23.78;99029.34;4984006;28;20038;-75
2022/06/02 08:37:20;;;;;;;1.90;0.70;;;;;;;35.04;23.69;99018.41;4984048;28;20031;-73
2022/06/02 08:39:58;;;;;;;1.02;0.50;;;;;;;34.82;23.21;99022.63;4982293;28;20128;-69
2022/06/02 08:42:49;;;;;;;1.42;0.70;;;;;;;33.67;23.13;99024.84;4984682;28;20027;-66
2022/06/02 08:45:36;;;;;;;4.40;0.77;;;;;;;34.07;22.40;99015.66;4985795;28;20376;-69
2022/06/02 08:48:08;;;;;;;4.35;0.50;;;;;;;34.17;21.69;99015.19;4982843;28;20030;-73
2022/06/02 08:50:56;;;;;;;2.38;0.60;;;;;;;32.67;23.22;99015.78;4980317;28;20121;-69
2022/06/02 08:53:56;;;;;;;3.95;0.82;;;;;;;33.29;23.17;99019.53;4986835;28;20090;-68
2022/06/02 08:56:50;;;;;;;5.57;1.38;;;;;;;33.93;23.38;99012.38;4974995;28;20066;-68
2022/06/02 08:59:48;;;;;;;0.85;0.50;;;;;;;33.76;22.11;99005.88;4986206;28;20030;-70
2022/06/02 09:02:44;;;;;;;1.30;0.60;;;;;;;33.58;22.39;99004.50;4984776;28;20064;-68
2022/06/02 09:05:35;;;;;;;4.90;1.00;;;;;;;34.74;23.24;99006.75;4983783;28;20570;-71
2022/06/02 09:08:27;;;;;;;1.55;0.38;;;;;;;34.69;21.00;99010.66;4979902;28;20040;-68
2022/06/02 09:11:20;;;;;;;5.68;0.90;;;;;;;34.12;21.83;99009.00;4979856;28;20125;-66
2022/06/02 09:14:16;;;;;;;2.67;0.50;;;;;;;35.03;21.94;99020.41;4988511;28;20563;-67
2022/06/02 09:16:57;;;;;;;2.15;0.40;;;;;;;35.58;21.43;99019.81;4987615;28;20038;-67
2022/06/02 09:20:12;;;;;;;0.70;0.30;;;;;;;35.19;21.33;99022.44;4987165;28;20097;-67
2022/06/02 09:22:51;;;;;;;2.67;0.40;;;;;;;34.92;20.77;99013.66;4943704;28;20059;-71
2022/06/02 09:25:41;;;;;;;0.65;0.40;;;;;;;34.18;21.54;99016.00;4983518;28;20509;-76
2022/06/02 09:28:15;;;;;;;4.95;0.77;;;;;;;34.70;20.64;99023.53;4990927;28;20484;-73
2022/06/02 09:30:53;;;;;;;4.22;0.80;;;;;;;35.26;19.82;99011.38;4986568;28;20030;-75
2022/06/02 09:33:54;;;;;;;1.60;0.50;;;;;;;34.57;21.53;99021.94;4989190;28;20038;-69
2022/06/02 09:36:31;;;;;;;1.98;0.65;;;;;;;33.19;21.48;99029.22;4969230;28;20527;-70
2022/06/02 09:39:27;;;;;;;0.83;0.40;;;;;;;34.41;20.53;99019.06;4990714;28;20042;-71
2022/06/02 09:42:04;;;;;;;0.85;0.38;;;;;;;32.20;22.60;99016.00;4988368;28;20766;-71
2022/06/02 09:44:57;;;;;;;1.08;0.38;;;;;;;32.43;22.91;99014.47;4986499;28;20109;-71
2022/06/02 09:47:56;;;;;;;3.03;0.55;;;;;;;32.41;24.17;99016.84;4988391;28;20018;-67
2022/06/02 09:50:30;;;;;;;0.38;0.30;;;;;;;31.96;25.09;99017.50;4991741;28;20038;-70
2022/06/02 09:53:21;;;;;;;0.82;0.45;;;;;;;32.20;24.84;99021.59;4985541;28;20042;-70
2022/06/02 09:56:11;;;;;;;0.68;0.32;;;;;;;33.01;23.28;99013.75;4990883;28;20030;-70
2022/06/02 09:58:41;;;;;;;5.30;0.50;;;;;;;31.80;24.58;99024.84;4988893;28;20050;-69
2022/06/02 10:01:17;;;;;;;0.60;0.50;;;;;;;32.62;23.67;99019.63;4986248;28;20491;-70
2022/06/02 10:04:13;;;;;;;4.88;0.57;;;;;;;31.86;24.83;99017.91;4987196;28;20072;-70
2022/06/02 10:06:57;;;;;;;4.05;0.50;;;;;;;32.38;25.19;99011.91;4983035;28;20092;-70
2022/06/02 10:09:36;;;;;;;2.05;0.55;;;;;;;32.61;24.24;99015.16;4993247;28;20018;-69
2022/06/02 10:15:12;;;;;;;1.17;0.45;;;;;;;34.77;21.82;99009.69;4986875;28;20036;-71
2022/06/02 10:17:58;;;;;;;0.63;0.38;;;;;;;33.87;23.31;99002.59;4991184;28;20035;-68
2022/06/02 10:20:39;;;;;;;2.78;0.50;;;;;;;34.01;24.55;98998.22;4947860;28;20041;-69
2022/06/02 10:23:26;;;;;;;1.58;0.40;;;;;;;33.36;24.82;99003.78;4987551;28;20041;-68
2022/06/02 10:26:07;;;;;;;1.55;0.60;;;;;;;33.56;24.10;99001.22;4991238;28;20023;-70
2022/06/02 10:29:03;;;;;;;2.47;0.50;;;;;;;33.68;23.16;99006.81;4991167;28;20037;-69
2022/06/02 10:31:34;;;;;;;0.88;0.40;;;;;;;34.13;22.98;98999.38;4987878;28;20027;-69
2022/06/02 10:34:21;;;;;;;3.03;0.60;;;;;;;33.95;22.63;99004.44;4985783;28;20062;-69
2022/06/02 10:37:15;;;;;;;1.15;0.20;;;;;;;34.94;22.27;98988.81;4978213;28;20038;-69
2022/06/02 10:40:12;;;;;;;0.85;0.32;;;;;;;34.20;22.94;98986.38;4985067;28;20109;-68
2022/06/02 10:42:55;;;;;;;1.27;0.30;;;;;;;35.33;23.25;98986.22;4987596;28;20033;-70
2022/06/02 10:45:35;;;;;;;0.30;0.30;;;;;;;34.85;22.45;98991.00;4983751;28;20117;-69
2022/06/02 10:48:25;;;;;;;4.10;0.50;;;;;;;35.16;22.48;98987.41;4983431;28;20055;-69
2022/06/02 10:51:00;;;;;;;0.77;0.40;;;;;;;35.17;22.43;98977.00;4976932;28;20827;-70
2022/06/02 10:54:20;;;;;;;2.95;0.60;;;;;;;35.39;22.70;98976.31;4978235;28;20034;-70
2022/06/02 10:57:19;;;;;;;1.85;0.32;;;;;;;35.07;22.51;98981.13;4955282;28;20074;-70
2022/06/02 11:00:20;;;;;;;2.03;0.30;;;;;;;35.43;21.66;98979.25;4988059;28;20037;-70
2022/06/02 11:03:13;;;;;;;1.88;0.60;;;;;;;35.17;23.18;98974.19;4979662;28;20034;-70
2022/06/02 11:06:04;;;;;;;2.83;0.50;;;;;;;34.43;22.17;98964.16;4984372;28;20022;-69
2022/06/02 11:09:09;;;;;;;0.63;0.40;;;;;;;35.33;22.93;98972.16;4988633;28;20184;-68
2022/06/02 11:11:47;;;;;;;1.38;0.50;;;;;;;35.52;22.55;98969.41;4981449;28;20187;-70
2022/06/02 11:14:48;;;;;;;1.27;0.45;;;;;;;35.27;22.25;98976.44;4984560;28;20403;-69
2022/06/02 11:17:25;;;;;;;1.05;0.50;;;;;;;35.50;22.29;98971.78;4980668;28;20029;-68
2022/06/02 11:20:20;;;;;;;3.13;0.63;;;;;;;34.12;22.84;98958.47;4983597;28;20117;-69
2022/06/02 11:23:06;;;;;;;15.48;2.58;;;;;;;34.35;23.42;98958.69;4980528;28;20472;-69
2022/06/02 11:26:09;;;;;;;1.38;0.50;;;;;;;34.81;23.49;98957.16;4983537;28;20042;-69
2022/06/02 11:28:46;;;;;;;1.65;0.40;;;;;;;35.61;22.74;98948.69;4981084;28;20035;-69
2022/06/02 11:31:18;;;;;;;1.10;0.47;;;;;;;34.95;22.46;98951.09;4984496;28;20042;-73
2022/06/02 11:33:56;;;;;;;1.15;0.43;;;;;;;34.73;23.75;98958.16;4979787;28;20030;-69
2022/06/02 11:36:59;;;;;;;0.65;0.30;;;;;;;33.97;22.81;98954.38;4976952;28;20034;-67
2022/06/02 11:39:50;;;;;;;4.20;0.77;;;;;;;34.36;24.17;98941.47;4981303;28;20488;-69
2022/06/02 11:42:31;;;;;;;0.82;0.30;;;;;;;35.09;23.43;98937.44;4982363;28;20051;-71
2022/06/02 11:45:00;;;;;;;2.33;0.40;;;;;;;35.12;23.97;98921.81;4985634;28;20034;-69
2022/06/02 11:47:56;;;;;;;0.90;0.50;;;;;;;35.33;23.10;98916.72;4985459;28;20076;-71
2022/06/02 11:50:50;;;;;;;6.53;1.17;;;;;;;34.52;23.93;98919.03;4983660;28;20506;-69
2022/06/02 11:53:47;;;;;;;0.63;0.30;;;;;;;35.04;22.96;98911.56;4986409;28;20049;-69
2022/06/02 11:56:19;;;;;;;1.98;0.40;;;;;;;33.97;23.44;98927.09;4988782;28;20105;-71
2022/06/02 11:59:03;;;;;;;0.43;0.35;;;;;;;33.37;24.87;98938.09;4972418;28;20073;-68
2022/06/02 12:02:02;;;;;;;1.55;0.40;;;;;;;32.35;25.56;98922.97;4975065;28;20054;-71
2022/06/02 12:04:35;;;;;;;2.25;0.50;;;;;;;30.82;27.61;98912.22;4986386;28;20030;-66
2022/06/02 12:07:38;;;;;;;2.13;0.40;;;;;;;31.15;27.40;98910.41;4986189;28;20038;-65
2022/06/02 12:10:40;;;;;;;0.57;0.35;;;;;;;31.41;26.52;98920.63;4981587;28;20030;-68
2022/06/02 12:13:06;;;;;;;4.80;0.90;;;;;;;31.50;25.00;98915.81;4983254;28;20030;-73
2022/06/02 12:16:22;;;;;;;2.20;0.50;;;;;;;32.58;26.10;98911.41;4980201;28;20038;-70
2022/06/02 12:18:53;;;;;;;0.50;0.40;;;;;;;34.08;24.77;98923.81;4944004;28;20480;-72
2022/06/02 12:21:56;;;;;;;2.92;0.43;;;;;;;33.97;25.15;98921.50;4988388;28;20050;-72
2022/06/02 12:24:31;;;;;;;1.00;0.40;;;;;;;34.29;24.22;98930.03;4987580;28;20305;-72
2022/06/02 12:27:35;;;;;;;3.55;0.60;;;;;;;34.98;23.26;98913.84;4982488;28;20125;-73
2022/06/02 12:30:38;;;;;;;1.45;0.60;;;;;;;34.52;24.20;98910.59;4968300;28;20124;-71
2022/06/02 12:33:22;;;;;;;0.70;0.40;;;;;;;34.00;24.89;98917.16;4982054;28;20433;-70
2022/06/02 12:35:50;;;;;;;5.72;0.80;;;;;;;34.37;24.70;98905.78;4987305;28;20031;-72
2022/06/02 12:38:34;;;;;;;;;;;;;;;34.34;24.82;98892.47;4988101;28;20050;-70
2022/06/02 12:41:21;;;;;;;0.95;0.43;;;;;;;34.26;24.78;98902.69;4985183;28;19933;-70
2022/06/02 12:43:53;;;;;;;0.80;0.40;;;;;;;34.24;24.45;98908.66;4987489;28;20038;-71
2022/06/02 12:46:42;;;;;;;0.90;0.40;;;;;;;32.53;26.06;98906.84;4983829;28;20037;-71
2022/06/02 12:49:36;;;;;;;1.02;0.50;;;;;;;32.27;26.48;98898.69;4988365;28;20022;-72
2022/06/02 12:52:11;;;;;;;0.63;0.50;;;;;;;32.04;26.67;98913.09;4974359;28;20058;-72
2022/06/02 12:55:07;;;;;;;1.08;0.40;;;;;;;31.47;27.33;98904.47;4989614;28;20022;-73
2022/06/02 12:57:47;;;;;;;1.00;0.50;;;;;;;30.49;28.75;98913.59;4991580;28;20111;-74
2022/06/02 13:00:31;;;;;;;1.27;0.40;;;;;;;29.93;28.92;98904.31;4992582;28;20031;-71
2022/06/02 13:03:23;;;;;;;0.80;0.40;;;;;;;29.36;30.59;98913.59;4984467;28;20479;-71
2022/06/02 13:06:13;;;;;;;0.63;0.50;;;;;;;29.21;31.10;98911.28;4980294;28;20054;-71